Time;durP1;ratioP1;P1;durP2;ratioP2;P2;SDS_P1;SDS_P2;PMS_P1;PMS_P2;Temp;Humidity;BMP_temperature;BMP_pressure;BME280_temperature;BME280_humidity;BME280_pressure;Samples;Min_cycle;Max_cycle;Signal;HPM_P1;HPM_P2
2023/10/12 00:01:58;;;;;;;10.37;6.83;;;;;;;;;;5119640;28;20228;-63
2023/10/12 00:04:35;;;;;;;10.90;7.40;;;;;;;;;;5120555;28;20206;-64
2023/10/12 00:07:10;;;;;;;9.77;7.30;;;;;;;;;;5116985;28;20276;-63
2023/10/12 00:09:38;;;;;;;14.43;7.60;;;;;;;;;;5102041;28;20285;-63
2023/10/12 00:12:08;;;;;;;11.13;7.87;;;;;;;;;;5100139;28;20242;-63
2023/10/12 00:14:36;;;;;;;12.80;7.90;;;;;;;;;;5099935;28;20198;-64
2023/10/12 00:17:06;;;;;;;9.03;7.00;;;;;;;;;;5100030;28;20743;-64
2023/10/12 00:19:38;;;;;;;10.47;7.20;;;;;;;;;;5115401;28;20683;-64
2023/10/12 00:22:11;;;;;;;10.83;7.70;;;;;;;;;;5120517;28;20299;-63
2023/10/12 00:24:39;;;;;;;12.70;7.50;;;;;;;;;;5120239;28;20834;-63
2023/10/12 00:27:09;;;;;;;14.10;7.93;;;;;;;;;;5102423;28;20564;-63
2023/10/12 00:29:39;;;;;;;11.93;7.60;;;;;;;;;;5099972;28;20713;-64
2023/10/12 00:32:07;;;;;;;11.83;7.63;;;;;;;;;;5099850;28;20204;-63
2023/10/12 00:34:37;;;;;;;11.23;7.30;;;;;;;;;;5117567;27;20199;-64
2023/10/12 00:37:06;;;;;;;10.67;7.70;;;;;;;;;;5099786;28;20206;-63
2023/10/12 00:39:46;;;;;;;13.30;8.33;;;;;;;;;;5099851;28;20209;-63
2023/10/12 00:42:17;;;;;;;9.70;8.17;;;;;;;;;;5099727;28;20209;-63
2023/10/12 00:44:49;;;;;;;10.23;7.93;;;;;;;;;;5106173;28;20197;-63
2023/10/12 00:47:29;;;;;;;11.60;7.33;;;;;;;;;;5118871;28;20202;-63
2023/10/12 00:50:05;;;;;;;13.20;8.10;;;;;;;;;;5118652;28;20204;-63
2023/10/12 00:52:46;;;;;;;11.73;7.27;;;;;;;;;;5118588;27;20201;-64
2023/10/12 00:55:21;;;;;;;10.90;7.60;;;;;;;;;;5122673;27;20658;-63
2023/10/12 00:57:50;;;;;;;10.07;7.53;;;;;;;;;;5122509;27;20652;-63
2023/10/12 01:00:19;;;;;;;9.93;7.97;;;;;;;;;;5122416;27;20221;-63
2023/10/12 01:03:06;;;;;;;10.40;8.17;;;;;;;;;;5121904;27;20198;-63
2023/10/12 01:05:36;;;;;;;10.50;8.87;;;;;;;;;;5124988;27;20202;-63
2023/10/12 01:08:05;;;;;;;10.87;8.83;;;;;;;;;;5124897;27;20267;-63
2023/10/12 01:10:40;;;;;;;9.53;8.03;;;;;;;;;;5122792;27;20677;-62
2023/10/12 01:13:09;;;;;;;12.83;9.27;;;;;;;;;;5119105;27;20201;-63
2023/10/12 01:15:40;;;;;;;12.53;8.23;;;;;;;;;;5120334;27;20243;-63
2023/10/12 01:18:11;;;;;;;10.97;8.87;;;;;;;;;;5123274;27;20654;-61
2023/10/12 01:20:41;;;;;;;11.57;8.70;;;;;;;;;;5124612;27;20213;-62
2023/10/12 01:23:10;;;;;;;10.83;8.83;;;;;;;;;;5128833;27;20207;-63
2023/10/12 01:25:42;;;;;;;13.03;8.37;;;;;;;;;;5119316;27;20545;-63
2023/10/12 01:28:12;;;;;;;12.97;9.23;;;;;;;;;;5122271;27;20291;-62
2023/10/12 01:30:43;;;;;;;9.93;8.93;;;;;;;;;;5117993;27;20230;-63
2023/10/12 01:33:13;;;;;;;14.83;9.10;;;;;;;;;;5129183;27;20200;-62
2023/10/12 01:35:48;;;;;;;12.23;9.70;;;;;;;;;;5120728;27;20204;-63
2023/10/12 01:38:18;;;;;;;11.23;8.97;;;;;;;;;;5121766;27;20197;-63
2023/10/12 01:40:53;;;;;;;10.87;8.20;;;;;;;;;;5126206;27;20255;-63
2023/10/12 01:43:22;;;;;;;11.00;7.90;;;;;;;;;;5124951;27;20194;-63
2023/10/12 01:46:00;;;;;;;11.27;8.80;;;;;;;;;;5122471;27;20200;-62
2023/10/12 01:48:33;;;;;;;11.53;9.23;;;;;;;;;;5120108;27;20302;-63
2023/10/12 01:51:04;;;;;;;13.23;8.90;;;;;;;;;;5122896;27;20686;-62
2023/10/12 01:53:33;;;;;;;11.50;8.77;;;;;;;;;;5112318;28;20207;-63
2023/10/12 01:56:09;;;;;;;9.90;8.60;;;;;;;;;;5105033;28;20214;-63
2023/10/12 01:58:40;;;;;;;12.87;8.93;;;;;;;;;;5099949;28;20633;-63
2023/10/12 02:01:13;;;;;;;13.03;9.10;;;;;;;;;;5112097;28;20223;-63
2023/10/12 02:03:43;;;;;;;12.50;9.20;;;;;;;;;;5097955;28;20208;-62
2023/10/12 02:06:16;;;;;;;11.07;8.37;;;;;;;;;;5111304;28;20266;-63
2023/10/12 02:08:52;;;;;;;11.90;9.47;;;;;;;;;;5108080;28;20231;-63
2023/10/12 02:11:36;;;;;;;10.37;9.17;;;;;;;;;;5101184;28;20247;-63
2023/10/12 02:14:05;;;;;;;11.87;9.33;;;;;;;;;;5098105;28;20207;-63
2023/10/12 02:16:37;;;;;;;11.27;8.50;;;;;;;;;;5097515;28;20400;-63
2023/10/12 02:19:05;;;;;;;11.03;9.13;;;;;;;;;;5117840;28;20568;-63
2023/10/12 02:21:37;;;;;;;11.57;9.90;;;;;;;;;;5117947;28;20663;-63
2023/10/12 02:24:13;;;;;;;9.87;8.63;;;;;;;;;;5118238;28;20206;-63
2023/10/12 02:26:52;;;;;;;11.97;9.23;;;;;;;;;;5118294;28;20238;-62
2023/10/12 02:29:20;;;;;;;11.00;9.50;;;;;;;;;;5104547;28;20685;-62
2023/10/12 02:31:58;;;;;;;12.43;9.67;;;;;;;;;;5097854;28;20225;-63
2023/10/12 02:34:28;;;;;;;19.13;11.10;;;;;;;;;;5104146;28;20634;-64
2023/10/12 02:37:16;;;;;;;13.50;10.33;;;;;;;;;;5118202;28;20295;-63
2023/10/12 02:39:46;;;;;;;11.87;9.43;;;;;;;;;;5117953;28;20201;-63
2023/10/12 02:42:18;;;;;;;12.93;9.93;;;;;;;;;;5107258;28;20272;-61
2023/10/12 02:45:09;;;;;;;11.67;9.67;;;;;;;;;;5109499;28;20262;-62
2023/10/12 02:47:41;;;;;;;14.53;10.27;;;;;;;;;;5121860;28;20236;-61
2023/10/12 02:50:20;;;;;;;13.17;9.87;;;;;;;;;;5117688;28;20225;-63
2023/10/12 02:52:51;;;;;;;10.80;9.27;;;;;;;;;;5120975;28;20205;-61
2023/10/12 02:55:40;;;;;;;13.37;9.70;;;;;;;;;;5102544;28;20213;-63
2023/10/12 02:58:18;;;;;;;18.47;10.70;;;;;;;;;;5106659;28;20201;-63
2023/10/12 03:00:47;;;;;;;12.47;10.40;;;;;;;;;;5111985;28;20226;-63
2023/10/12 03:03:23;;;;;;;14.93;10.67;;;;;;;;;;5120687;28;20208;-63
2023/10/12 03:05:52;;;;;;;11.70;10.40;;;;;;;;;;5121069;28;20197;-63
2023/10/12 03:08:23;;;;;;;12.60;10.50;;;;;;;;;;5115479;28;20225;-63
2023/10/12 03:11:09;;;;;;;13.27;10.43;;;;;;;;;;5112893;28;20225;-63
2023/10/12 03:13:38;;;;;;;19.20;10.63;;;;;;;;;;5104055;28;20201;-63
2023/10/12 03:16:13;;;;;;;13.90;10.27;;;;;;;;;;5102481;28;20204;-63
2023/10/12 03:18:42;;;;;;;14.57;11.30;;;;;;;;;;5117746;28;20203;-63
2023/10/12 03:21:14;;;;;;;14.60;11.00;;;;;;;;;;5120207;28;20309;-63
2023/10/12 03:23:46;;;;;;;13.50;10.60;;;;;;;;;;5120483;28;20312;-63
2023/10/12 03:26:24;;;;;;;12.90;10.73;;;;;;;;;;5102031;28;20241;-63
2023/10/12 03:28:54;;;;;;;13.30;10.13;;;;;;;;;;5100557;28;20230;-63
2023/10/12 03:31:24;;;;;;;14.57;11.23;;;;;;;;;;5100425;28;20250;-63
2023/10/12 03:33:55;;;;;;;14.53;10.63;;;;;;;;;;5109812;28;20232;-63
2023/10/12 03:36:25;;;;;;;13.57;10.87;;;;;;;;;;5120350;28;20203;-63
2023/10/12 03:39:21;;;;;;;17.03;11.57;;;;;;;;;;5119903;28;20209;-63
2023/10/12 03:44:51;;;;;;;15.57;10.93;;;;;;;;;;5117370;28;20665;-63
2023/10/12 03:47:29;;;;;;;13.37;11.17;;;;;;;;;;5100650;28;20210;-62
2023/10/12 03:50:05;;;;;;;16.87;11.83;;;;;;;;;;5102809;28;20213;-63
2023/10/12 03:52:39;;;;;;;15.87;11.30;;;;;;;;;;5120197;28;20209;-62
2023/10/12 03:55:24;;;;;;;13.37;10.83;;;;;;;;;;5118999;28;20287;-63
2023/10/12 03:58:05;;;;;;;12.87;10.47;;;;;;;;;;5115341;28;20194;-61
2023/10/12 04:00:41;;;;;;;15.53;11.37;;;;;;;;;;5103620;28;20248;-62
2023/10/12 04:03:18;;;;;;;14.43;10.43;;;;;;;;;;5112032;28;20633;-62
2023/10/12 04:05:51;;;;;;;13.23;11.03;;;;;;;;;;5099597;28;20211;-61
2023/10/12 04:14:12;;;;;;;12.27;10.97;;;;;;;;;;5105712;28;20285;-62
2023/10/12 04:16:45;;;;;;;11.27;9.73;;;;;;;;;;5114495;27;20197;-62
2023/10/12 04:19:22;;;;;;;14.60;11.23;;;;;;;;;;5099663;28;20271;-61
2023/10/12 04:22:05;;;;;;;13.40;11.53;;;;;;;;;;5099976;28;20317;-62
2023/10/12 04:24:45;;;;;;;13.33;10.97;;;;;;;;;;5100302;28;20213;-61
2023/10/12 04:30:00;;;;;;;15.23;10.53;;;;;;;;;;5088907;28;20716;-63
2023/10/12 04:32:51;;;;;;;13.23;10.70;;;;;;;;;;5099454;28;20572;-63
2023/10/12 04:35:29;;;;;;;14.07;10.20;;;;;;;;;;5099876;28;20213;-61
2023/10/12 04:38:06;;;;;;;15.67;11.00;;;;;;;;;;5099537;28;20722;-63
2023/10/12 04:40:37;;;;;;;11.87;9.83;;;;;;;;;;5108421;28;20301;-60
2023/10/12 04:43:06;;;;;;;15.83;11.20;;;;;;;;;;5100328;28;20711;-61
2023/10/12 04:46:05;;;;;;;14.07;10.20;;;;;;;;;;5099637;28;20214;-61
2023/10/12 04:48:33;;;;;;;13.87;9.57;;;;;;;;;;5098803;28;20222;-63
2023/10/12 04:51:06;;;;;;;17.50;11.07;;;;;;;;;;5110290;28;20250;-63
2023/10/12 04:53:53;;;;;;;14.50;11.00;;;;;;;;;;5119776;28;20277;-63
2023/10/12 04:56:23;;;;;;;13.80;10.43;;;;;;;;;;5106483;28;20232;-62
2023/10/12 04:58:56;;;;;;;14.37;10.40;;;;;;;;;;5111515;28;20197;-63
2023/10/12 05:01:40;;;;;;;12.93;10.77;;;;;;;;;;5119191;27;20223;-61
2023/10/12 05:04:09;;;;;;;13.00;10.50;;;;;;;;;;5115095;28;20205;-61
2023/10/12 05:06:46;;;;;;;15.70;11.17;;;;;;;;;;5118378;27;20203;-62
2023/10/12 05:09:18;;;;;;;13.30;10.20;;;;;;;;;;5125403;27;20596;-63
2023/10/12 05:11:47;;;;;;;12.07;10.73;;;;;;;;;;5117678;27;20242;-63
2023/10/12 05:14:15;;;;;;;14.90;10.53;;;;;;;;;;5126481;27;20304;-62
2023/10/12 05:16:45;;;;;;;14.60;10.43;;;;;;;;;;5115895;28;20236;-63
2023/10/12 05:19:13;;;;;;;12.87;9.67;;;;;;;;;;5114427;27;20262;-63
2023/10/12 05:21:43;;;;;;;11.90;9.63;;;;;;;;;;5122738;27;20289;-62
2023/10/12 05:24:12;;;;;;;13.30;10.07;;;;;;;;;;5125266;27;20216;-62
2023/10/12 05:26:40;;;;;;;14.37;10.10;;;;;;;;;;5112388;27;20240;-62
2023/10/12 05:32:05;;;;;;;14.53;10.50;;;;;;;;;;5107925;27;20216;-64
2023/10/12 05:34:44;;;;;;;13.87;10.30;;;;;;;;;;5106168;28;20544;-63
2023/10/12 05:37:24;;;;;;;14.37;10.70;;;;;;;;;;5101537;28;20223;-61
2023/10/12 05:39:55;;;;;;;14.00;10.00;;;;;;;;;;5106072;27;20228;-62
2023/10/12 05:42:23;;;;;;;11.90;9.47;;;;;;;;;;5114430;27;20247;-64
2023/10/12 05:44:53;;;;;;;13.40;9.57;;;;;;;;;;5127782;27;20249;-64
2023/10/12 05:47:29;;;;;;;12.50;10.17;;;;;;;;;;5128638;27;20200;-65
2023/10/12 05:49:58;;;;;;;12.37;9.13;;;;;;;;;;5107362;28;20224;-63
2023/10/12 05:52:26;;;;;;;15.50;10.57;;;;;;;;;;5118448;28;20230;-65
2023/10/12 05:54:57;;;;;;;12.60;9.23;;;;;;;;;;5103469;28;20300;-65
2023/10/12 05:57:29;;;;;;;14.93;9.53;;;;;;;;;;5097353;28;20733;-65
2023/10/12 05:59:59;;;;;;;13.20;8.80;;;;;;;;;;5109083;28;20332;-64
2023/10/12 06:02:29;;;;;;;12.33;9.47;;;;;;;;;;5109664;27;20192;-64
2023/10/12 06:04:57;;;;;;;11.10;9.03;;;;;;;;;;5133647;27;20647;-64
2023/10/12 06:07:26;;;;;;;10.87;8.93;;;;;;;;;;5097681;28;20787;-65
2023/10/12 06:09:54;;;;;;;14.47;8.80;;;;;;;;;;5097813;28;20288;-65
2023/10/12 06:12:24;;;;;;;13.83;9.20;;;;;;;;;;5102655;28;20203;-64
2023/10/12 06:14:54;;;;;;;13.53;8.33;;;;;;;;;;5098271;28;20233;-64
2023/10/12 06:17:31;;;;;;;12.20;8.50;;;;;;;;;;5097459;28;20236;-63
2023/10/12 06:20:10;;;;;;;10.77;8.67;;;;;;;;;;5098121;28;22086;-64
2023/10/12 06:22:39;;;;;;;12.10;8.13;;;;;;;;;;5097962;28;20205;-63
2023/10/12 06:25:11;;;;;;;11.10;9.03;;;;;;;;;;5097545;28;20255;-64
2023/10/12 06:27:39;;;;;;;14.67;8.93;;;;;;;;;;5113032;28;20201;-64
2023/10/12 06:30:18;;;;;;;13.40;8.80;;;;;;;;;;5100011;28;20224;-64
2023/10/12 06:32:48;;;;;;;12.03;8.83;;;;;;;;;;5097608;28;20293;-64
2023/10/12 06:35:26;;;;;;;15.80;10.47;;;;;;;;;;5097829;28;20213;-64
2023/10/12 06:41:00;;;;;;;9.90;8.70;;;;;;;;;;5104433;28;20787;-64
2023/10/12 06:46:15;;;;;;;11.13;8.33;;;;;;;;;;5119822;28;20199;-63
2023/10/12 06:48:47;;;;;;;11.23;9.07;;;;;;;;;;5119907;27;20209;-64
2023/10/12 06:51:17;;;;;;;12.20;8.83;;;;;;;;;;5130363;28;20667;-64
2023/10/12 06:53:51;;;;;;;11.50;8.93;;;;;;;;;;5127606;28;20197;-64
2023/10/12 06:56:26;;;;;;;13.10;9.07;;;;;;;;;;5125442;28;20636;-64
2023/10/12 06:59:12;;;;;;;10.87;9.30;;;;;;;;;;5110428;27;20732;-64
2023/10/12 07:01:51;;;;;;;10.60;8.43;;;;;;;;;;5098876;28;20231;-63
2023/10/12 07:04:26;;;;;;;12.33;8.57;;;;;;;;;;5115296;28;20615;-63
2023/10/12 07:06:59;;;;;;;11.50;9.67;;;;;;;;;;5097733;28;20243;-63
2023/10/12 07:09:38;;;;;;;18.40;10.03;;;;;;;;;;5104679;28;20215;-63
2023/10/12 07:12:08;;;;;;;15.23;10.13;;;;;;;;;;5117571;28;20224;-63
2023/10/12 07:14:38;;;;;;;16.43;9.03;;;;;;;;;;5116459;28;20599;-64
2023/10/12 07:17:08;;;;;;;11.77;9.13;;;;;;;;;;5106399;28;20252;-64
2023/10/12 07:19:40;;;;;;;11.53;9.30;;;;;;;;;;5096304;28;20198;-65
2023/10/12 07:22:15;;;;;;;13.83;9.23;;;;;;;;;;5116007;28;20212;-65
2023/10/12 07:24:43;;;;;;;9.33;8.33;;;;;;;;;;5117503;28;20203;-64
2023/10/12 07:27:17;;;;;;;12.17;8.60;;;;;;;;;;5117467;28;20205;-63
2023/10/12 07:29:47;;;;;;;10.33;8.07;;;;;;;;;;5118098;28;20196;-63
2023/10/12 07:32:31;;;;;;;11.27;8.80;;;;;;;;;;5121000;28;20228;-63
2023/10/12 07:35:07;;;;;;;11.40;8.53;;;;;;;;;;5120781;28;20209;-64
2023/10/12 07:37:41;;;;;;;11.67;8.63;;;;;;;;;;5107152;28;20568;-64
2023/10/12 07:40:17;;;;;;;10.27;8.50;;;;;;;;;;5102788;28;20228;-63
2023/10/12 07:42:50;;;;;;;11.80;7.40;;;;;;;;;;5101091;28;20246;-63
2023/10/12 07:45:19;;;;;;;10.17;7.77;;;;;;;;;;5111454;28;20237;-63
2023/10/12 07:47:58;;;;;;;9.87;8.17;;;;;;;;;;5100900;27;20206;-64
2023/10/12 07:50:30;;;;;;;8.30;7.40;;;;;;;;;;5100501;28;20288;-64
2023/10/12 07:53:08;;;;;;;11.57;7.73;;;;;;;;;;5100284;28;20279;-64
2023/10/12 07:55:41;;;;;;;9.43;7.23;;;;;;;;;;5100477;28;20247;-64
2023/10/12 07:58:12;;;;;;;10.90;8.00;;;;;;;;;;5110162;28;20208;-63
2023/10/12 08:00:41;;;;;;;8.80;7.90;;;;;;;;;;5103514;28;20222;-62
2023/10/12 08:03:19;;;;;;;10.70;8.23;;;;;;;;;;5101893;28;20212;-65
2023/10/12 08:05:56;;;;;;;9.83;7.47;;;;;;;;;;5120557;28;20628;-64
2023/10/12 08:08:37;;;;;;;10.57;8.07;;;;;;;;;;5120691;27;20275;-63
2023/10/12 08:11:22;;;;;;;12.47;6.97;;;;;;;;;;5111258;28;20255;-64
2023/10/12 08:13:54;;;;;;;10.03;6.90;;;;;;;;;;5100786;28;20294;-64
2023/10/12 08:16:27;;;;;;;44.83;19.13;;;;;;;;;;5100910;28;20207;-63
2023/10/12 08:21:58;;;;;;;11.00;7.40;;;;;;;;;;5087121;28;20228;-64
2023/10/12 08:24:30;;;;;;;12.37;7.93;;;;;;;;;;5100113;28;20206;-64
2023/10/12 08:27:00;;;;;;;11.33;7.57;;;;;;;;;;5113068;27;20247;-63
2023/10/12 08:32:27;;;;;;;9.30;7.10;;;;;;;;;;5104283;28;20310;-63
2023/10/12 08:35:10;;;;;;;9.60;6.90;;;;;;;;;;5103096;28;20205;-63
2023/10/12 08:38:09;;;;;;;8.20;6.10;;;;;;;;;;5120507;28;20216;-64
2023/10/12 08:40:53;;;;;;;7.83;6.50;;;;;;;;;;5113421;28;20307;-64
2023/10/12 08:43:34;;;;;;;7.90;6.50;;;;;;;;;;5103741;28;20653;-64
2023/10/12 08:46:06;;;;;;;11.27;7.10;;;;;;;;;;5111933;28;20201;-63
2023/10/12 08:48:35;;;;;;;8.70;6.67;;;;;;;;;;5104359;28;20216;-64
2023/10/12 08:51:09;;;;;;;9.50;6.70;;;;;;;;;;5098756;28;20229;-63
2023/10/12 08:53:39;;;;;;;13.33;8.03;;;;;;;;;;5098908;28;20199;-64
2023/10/12 08:56:11;;;;;;;15.50;7.50;;;;;;;;;;5099149;28;20615;-64
2023/10/12 08:58:44;;;;;;;10.00;7.00;;;;;;;;;;5099168;28;20725;-64
2023/10/12 09:01:22;;;;;;;6.37;5.60;;;;;;;;;;5101645;28;20236;-65
2023/10/12 09:04:00;;;;;;;9.20;6.63;;;;;;;;;;5119505;28;20200;-63
2023/10/12 09:06:53;;;;;;;7.33;6.10;;;;;;;;;;5103514;28;20290;-64
2023/10/12 09:12:19;;;;;;;8.13;6.10;;;;;;;;;;5119212;28;20228;-63
2023/10/12 09:14:47;;;;;;;6.73;5.93;;;;;;;;;;5119648;28;20253;-64
2023/10/12 09:17:27;;;;;;;9.27;6.10;;;;;;;;;;5119336;28;20680;-64
2023/10/12 09:20:21;;;;;;;6.63;5.83;;;;;;;;;;5102724;28;20243;-64
2023/10/12 09:22:56;;;;;;;8.00;5.57;;;;;;;;;;5098303;28;20239;-64
2023/10/12 09:25:59;;;;;;;11.97;7.40;;;;;;;;;;5116441;28;20205;-64
2023/10/12 09:28:27;;;;;;;8.43;5.90;;;;;;;;;;5115928;28;20280;-64
2023/10/12 09:31:00;;;;;;;8.00;5.80;;;;;;;;;;5114522;28;20221;-64
2023/10/12 09:33:45;;;;;;;20.90;8.43;;;;;;;;;;5098021;28;20221;-64
2023/10/12 09:36:13;;;;;;;9.13;5.87;;;;;;;;;;5098716;28;20208;-63
2023/10/12 09:38:41;;;;;;;15.73;7.13;;;;;;;;;;5098100;28;20662;-64
2023/10/12 09:41:14;;;;;;;18.30;7.50;;;;;;;;;;5116864;28;20254;-64
2023/10/12 09:43:46;;;;;;;9.77;5.67;;;;;;;;;;5118616;28;20198;-64
2023/10/12 09:46:17;;;;;;;6.70;5.60;;;;;;;;;;5119191;28;20286;-64
2023/10/12 09:48:45;;;;;;;6.03;4.77;;;;;;;;;;5097686;28;20654;-64
2023/10/12 09:51:16;;;;;;;9.60;5.70;;;;;;;;;;5112403;28;20241;-65
2023/10/12 09:53:53;;;;;;;6.83;5.27;;;;;;;;;;5103181;28;20280;-63
2023/10/12 09:56:28;;;;;;;7.47;5.47;;;;;;;;;;5107016;28;20237;-64
2023/10/12 09:59:07;;;;;;;7.17;4.60;;;;;;;;;;5118976;28;20307;-64
2023/10/12 10:01:49;;;;;;;11.73;5.43;;;;;;;;;;5106922;27;20303;-66
2023/10/12 10:04:34;;;;;;;8.87;5.03;;;;;;;;;;5097534;28;20213;-64
2023/10/12 10:07:17;;;;;;;9.07;5.27;;;;;;;;;;5111797;28;20576;-65
2023/10/12 10:09:48;;;;;;;8.10;4.97;;;;;;;;;;5110849;28;20239;-65
2023/10/12 10:12:18;;;;;;;4.83;4.37;;;;;;;;;;5097656;28;20287;-65
2023/10/12 10:14:53;;;;;;;32.30;10.13;;;;;;;;;;5099351;28;20290;-65
2023/10/12 10:17:24;;;;;;;55.03;15.37;;;;;;;;;;5105129;28;20291;-64
2023/10/12 10:20:17;;;;;;;54.20;14.20;;;;;;;;;;5117846;28;20644;-64
2023/10/12 10:22:45;;;;;;;40.63;11.93;;;;;;;;;;5098348;28;20254;-64
2023/10/12 10:25:17;;;;;;;9.23;5.57;;;;;;;;;;5098025;28;20201;-66
2023/10/12 10:27:46;;;;;;;8.37;5.07;;;;;;;;;;5097886;28;20205;-65
2023/10/12 10:30:25;;;;;;;8.97;5.43;;;;;;;;;;5098144;28;20224;-64
2023/10/12 10:33:12;;;;;;;7.37;5.00;;;;;;;;;;5097529;28;20263;-66
2023/10/12 10:36:00;;;;;;;5.93;5.10;;;;;;;;;;5097943;28;20656;-66
2023/10/12 10:38:32;;;;;;;7.87;5.27;;;;;;;;;;5097526;28;20212;-65
2023/10/12 10:41:07;;;;;;;10.67;6.20;;;;;;;;;;5103086;28;20231;-66
2023/10/12 10:43:37;;;;;;;10.63;4.90;;;;;;;;;;5102669;28;20210;-64
2023/10/12 10:46:09;;;;;;;10.17;5.40;;;;;;;;;;5117852;28;20208;-64
2023/10/12 10:48:39;;;;;;;8.10;5.17;;;;;;;;;;5099938;28;20288;-63
2023/10/12 10:51:16;;;;;;;6.47;5.00;;;;;;;;;;5097372;28;20229;-65
2023/10/12 10:53:52;;;;;;;9.73;5.67;;;;;;;;;;5097545;28;20564;-65
2023/10/12 10:56:34;;;;;;;7.10;5.13;;;;;;;;;;5097677;28;20221;-64
2023/10/12 10:59:02;;;;;;;10.00;5.00;;;;;;;;;;5097574;28;20217;-64
2023/10/12 11:01:31;;;;;;;6.13;4.50;;;;;;;;;;5097026;28;20311;-64
2023/10/12 11:04:01;;;;;;;8.00;5.43;;;;;;;;;;5100935;28;20216;-64
2023/10/12 11:06:31;;;;;;;8.20;4.80;;;;;;;;;;5125275;27;20287;-64
2023/10/12 11:09:05;;;;;;;10.60;4.77;;;;;;;;;;5126290;27;20224;-65
2023/10/12 11:11:44;;;;;;;9.07;4.70;;;;;;;;;;5128696;27;20217;-65
2023/10/12 11:14:16;;;;;;;5.83;4.47;;;;;;;;;;5119793;27;20224;-64
2023/10/12 11:16:47;;;;;;;6.97;4.70;;;;;;;;;;5101090;28;20209;-64
2023/10/12 11:19:19;;;;;;;6.63;4.53;;;;;;;;;;5100769;28;20677;-64
2023/10/12 11:21:51;;;;;;;6.93;4.33;;;;;;;;;;5101232;28;20225;-63
2023/10/12 11:24:22;;;;;;;5.83;4.57;;;;;;;;;;5100964;28;20291;-64
2023/10/12 11:26:52;;;;;;;6.73;4.73;;;;;;;;;;5101389;28;20691;-64
2023/10/12 11:29:20;;;;;;;12.40;4.17;;;;;;;;;;5101232;28;20293;-64
2023/10/12 11:32:03;;;;;;;4.87;4.13;;;;;;;;;;5100873;28;20234;-64
2023/10/12 11:34:35;;;;;;;10.23;4.30;;;;;;;;;;5100401;28;20234;-66
2023/10/12 11:37:03;;;;;;;7.23;4.10;;;;;;;;;;5099857;28;20633;-65
2023/10/12 11:39:40;;;;;;;6.60;4.27;;;;;;;;;;5100147;28;20213;-64
2023/10/12 11:42:12;;;;;;;6.67;4.20;;;;;;;;;;5105459;28;20202;-64
2023/10/12 11:44:43;;;;;;;5.23;3.63;;;;;;;;;;5111027;28;20203;-65
2023/10/12 11:47:13;;;;;;;7.43;4.30;;;;;;;;;;5113631;28;20201;-64
2023/10/12 11:49:49;;;;;;;9.33;4.50;;;;;;;;;;5116085;28;20206;-63
2023/10/12 11:52:29;;;;;;;9.23;4.37;;;;;;;;;;5108012;27;20228;-64
2023/10/12 11:55:06;;;;;;;9.53;4.97;;;;;;;;;;5117701;28;20229;-63
2023/10/12 11:57:36;;;;;;;9.87;4.43;;;;;;;;;;5103694;28;20238;-64
2023/10/12 12:00:20;;;;;;;9.87;4.23;;;;;;;;;;5109175;28;20275;-64
2023/10/12 12:02:48;;;;;;;5.47;4.27;;;;;;;;;;5100627;28;20207;-63
2023/10/12 12:05:21;;;;;;;5.17;4.17;;;;;;;;;;5100342;28;20213;-64
2023/10/12 12:07:51;;;;;;;9.40;4.87;;;;;;;;;;5099710;28;20754;-63
2023/10/12 12:10:24;;;;;;;8.20;4.70;;;;;;;;;;5099154;28;20228;-64
2023/10/12 12:12:53;;;;;;;7.10;3.63;;;;;;;;;;5099167;28;20211;-65
2023/10/12 12:15:24;;;;;;;4.90;3.50;;;;;;;;;;5099159;28;20214;-65
2023/10/12 12:17:52;;;;;;;6.80;3.70;;;;;;;;;;5100051;28;20206;-65
2023/10/12 12:20:22;;;;;;;7.10;4.60;;;;;;;;;;5115856;27;20222;-65
2023/10/12 12:22:50;;;;;;;6.00;4.57;;;;;;;;;;5099675;28;20206;-65
2023/10/12 12:25:20;;;;;;;11.03;4.70;;;;;;;;;;5111299;27;20203;-65
2023/10/12 12:27:49;;;;;;;7.47;4.43;;;;;;;;;;5100799;28;20233;-65
2023/10/12 12:30:29;;;;;;;7.17;3.80;;;;;;;;;;5113425;28;20225;-63
2023/10/12 12:33:17;;;;;;;7.57;4.40;;;;;;;;;;5120429;28;20205;-64
2023/10/12 12:35:59;;;;;;;6.17;4.10;;;;;;;;;;5120359;28;20230;-63
2023/10/12 12:41:24;;;;;;;8.37;4.23;;;;;;;;;;5110468;27;20629;-64
2023/10/12 12:43:53;;;;;;;6.17;3.80;;;;;;;;;;5118132;28;20197;-64
2023/10/12 12:46:21;;;;;;;6.83;3.73;;;;;;;;;;5105334;28;20202;-63
2023/10/12 12:48:50;;;;;;;6.90;3.53;;;;;;;;;;5119409;28;20565;-64
2023/10/12 12:51:20;;;;;;;4.70;3.33;;;;;;;;;;5119796;28;20231;-64
2023/10/12 12:53:50;;;;;;;10.97;3.57;;;;;;;;;;5103306;28;20254;-63
2023/10/12 12:56:20;;;;;;;6.87;3.70;;;;;;;;;;5099389;28;20229;-63
2023/10/12 12:58:49;;;;;;;6.30;3.80;;;;;;;;;;5104834;28;20210;-63
2023/10/12 13:01:17;;;;;;;9.13;3.83;;;;;;;;;;5103727;28;20674;-63
2023/10/12 13:03:45;;;;;;;4.57;3.60;;;;;;;;;;5119057;27;20194;-63
2023/10/12 13:06:16;;;;;;;4.50;3.40;;;;;;;;;;5098742;28;20208;-64
2023/10/12 13:08:46;;;;;;;4.43;3.37;;;;;;;;;;5097742;28;20346;-64
2023/10/12 13:11:17;;;;;;;5.27;3.90;;;;;;;;;;5098522;28;20256;-64
2023/10/12 13:13:47;;;;;;;8.77;3.63;;;;;;;;;;5101993;28;20217;-63
2023/10/12 13:16:16;;;;;;;5.43;3.53;;;;;;;;;;5104595;28;20207;-65
2023/10/12 13:18:46;;;;;;;7.00;3.57;;;;;;;;;;5098294;27;20212;-62
2023/10/12 13:21:15;;;;;;;7.17;3.80;;;;;;;;;;5102095;28;20224;-64
2023/10/12 13:23:44;;;;;;;7.23;3.37;;;;;;;;;;5103568;28;20612;-65
2023/10/12 13:26:14;;;;;;;4.77;3.40;;;;;;;;;;5100718;28;20271;-63
2023/10/12 13:28:44;;;;;;;5.27;3.33;;;;;;;;;;5098709;28;20197;-64
2023/10/12 13:31:12;;;;;;;7.17;3.73;;;;;;;;;;5098452;28;20231;-62
2023/10/12 13:33:41;;;;;;;5.37;3.37;;;;;;;;;;5111732;28;20587;-63
2023/10/12 13:36:10;;;;;;;8.20;3.40;;;;;;;;;;5119091;27;20234;-62
2023/10/12 13:38:37;;;;;;;7.13;3.47;;;;;;;;;;5100885;28;20299;-63
2023/10/12 13:41:06;;;;;;;4.37;3.23;;;;;;;;;;5100509;28;20286;-63
2023/10/12 13:43:37;;;;;;;7.53;3.27;;;;;;;;;;5098189;28;20207;-62
2023/10/12 13:46:08;;;;;;;5.70;3.27;;;;;;;;;;5116531;27;20208;-63
2023/10/12 13:48:38;;;;;;;7.70;3.20;;;;;;;;;;5126210;27;20602;-62
2023/10/12 13:51:12;;;;;;;7.10;3.40;;;;;;;;;;5123292;27;20318;-62
2023/10/12 13:53:41;;;;;;;5.60;3.17;;;;;;;;;;5106368;28;20199;-62
2023/10/12 13:56:11;;;;;;;4.70;3.40;;;;;;;;;;5097714;28;20230;-63
2023/10/12 13:58:44;;;;;;;7.63;3.30;;;;;;;;;;5097632;28;20200;-62
2023/10/12 14:01:15;;;;;;;6.50;3.77;;;;;;;;;;5108678;28;20654;-62
2023/10/12 14:03:50;;;;;;;4.13;3.33;;;;;;;;;;5105185;28;20287;-62
2023/10/12 14:06:19;;;;;;;8.27;3.80;;;;;;;;;;5104738;28;20209;-63
2023/10/12 14:08:47;;;;;;;5.93;3.33;;;;;;;;;;5107266;28;20312;-63
2023/10/12 14:11:15;;;;;;;6.80;4.00;;;;;;;;;;5107683;28;20308;-63
2023/10/12 14:13:45;;;;;;;5.50;3.80;;;;;;;;;;5107541;28;20194;-64
2023/10/12 14:16:14;;;;;;;7.40;3.47;;;;;;;;;;5109476;28;20259;-64
2023/10/12 14:18:43;;;;;;;4.10;3.33;;;;;;;;;;5108211;28;20212;-64
2023/10/12 14:21:13;;;;;;;5.77;3.20;;;;;;;;;;5108189;28;20618;-62
2023/10/12 14:23:43;;;;;;;11.83;4.40;;;;;;;;;;5107482;28;20220;-61
2023/10/12 14:26:17;;;;;;;12.33;6.70;;;;;;;;;;5109171;28;20276;-64
2023/10/12 14:28:50;;;;;;;6.37;3.23;;;;;;;;;;5106194;28;20620;-64
2023/10/12 14:31:20;;;;;;;7.23;3.63;;;;;;;;;;5104217;28;20217;-64
2023/10/12 14:33:49;;;;;;;7.07;3.90;;;;;;;;;;5106608;28;20217;-64
2023/10/12 14:36:20;;;;;;;6.63;3.37;;;;;;;;;;5096907;28;20225;-64
2023/10/12 14:38:48;;;;;;;6.87;3.30;;;;;;;;;;5100984;28;20700;-62
2023/10/12 14:41:18;;;;;;;5.70;3.67;;;;;;;;;;5110863;28;20225;-64
2023/10/12 14:43:47;;;;;;;5.60;3.77;;;;;;;;;;5102062;28;20231;-64
2023/10/12 14:46:18;;;;;;;6.93;3.33;;;;;;;;;;5117147;28;20206;-63
2023/10/12 14:48:49;;;;;;;6.47;3.37;;;;;;;;;;5121778;28;20211;-63
2023/10/12 14:51:21;;;;;;;5.10;3.20;;;;;;;;;;5122258;28;20238;-63
2023/10/12 14:53:50;;;;;;;7.90;3.67;;;;;;;;;;5121713;28;20291;-62
2023/10/12 14:56:23;;;;;;;8.03;4.43;;;;;;;;;;5106544;28;20633;-63
2023/10/12 14:58:52;;;;;;;6.30;3.93;;;;;;;;;;5101968;28;20208;-64
2023/10/12 15:01:22;;;;;;;7.27;3.93;;;;;;;;;;5104014;28;20256;-64
2023/10/12 15:03:50;;;;;;;7.33;4.73;;;;;;;;;;5119820;27;20203;-64
2023/10/12 15:06:20;;;;;;;9.40;4.43;;;;;;;;;;5129632;27;20197;-65
2023/10/12 15:08:48;;;;;;;6.97;3.60;;;;;;;;;;5131010;27;20270;-64
2023/10/12 15:11:17;;;;;;;8.43;3.77;;;;;;;;;;5130830;27;20623;-64
2023/10/12 15:13:46;;;;;;;7.43;3.57;;;;;;;;;;5129836;27;20198;-65
2023/10/12 15:16:15;;;;;;;9.83;4.50;;;;;;;;;;5126830;27;20217;-64
2023/10/12 15:18:43;;;;;;;10.13;4.33;;;;;;;;;;5126522;27;20200;-64
2023/10/12 15:21:12;;;;;;;6.50;3.57;;;;;;;;;;5129976;27;20299;-65
2023/10/12 15:23:58;;;;;;;5.80;3.50;;;;;;;;;;5129332;27;20196;-65
2023/10/12 15:26:26;;;;;;;6.80;3.47;;;;;;;;;;5130305;27;20700;-64
2023/10/12 15:28:54;;;;;;;7.60;3.90;;;;;;;;;;5127124;27;20202;-66
2023/10/12 15:31:26;;;;;;;5.40;2.70;;;;;;;;;;5120959;27;20227;-62
2023/10/12 15:33:56;;;;;;;5.50;4.03;;;;;;;;;;5113391;28;20209;-63
2023/10/12 15:36:25;;;;;;;7.00;3.13;;;;;;;;;;5109064;28;20228;-63
2023/10/12 15:38:54;;;;;;;5.30;3.30;;;;;;;;;;5107188;28;20656;-63
2023/10/12 15:41:22;;;;;;;8.70;3.33;;;;;;;;;;5114275;28;20323;-63